sensor_id;sensor_type;location;lat;lon;timestamp;P1;durP1;ratioP1;P2;durP2;ratioP2
26690;SDS011;14307;51.718;8.938;2023-04-25T00:01:18;31.05;;;20.10;;
26690;SDS011;14307;51.718;8.938;2023-04-25T00:03:46;27.95;;;19.85;;
26690;SDS011;14307;51.718;8.938;2023-04-25T00:06:13;32.65;;;19.95;;
26690;SDS011;14307;51.718;8.938;2023-04-25T00:08:40;38.30;;;20.48;;
26690;SDS011;14307;51.718;8.938;2023-04-25T00:11:07;41.63;;;21.27;;
26690;SDS011;14307;51.718;8.938;2023-04-25T00:13:34;35.47;;;19.83;;
26690;SDS011;14307;51.718;8.938;2023-04-25T00:16:00;31.83;;;19.20;;
26690;SDS011;14307;51.718;8.938;2023-04-25T00:18:28;31.77;;;20.95;;
26690;SDS011;14307;51.718;8.938;2023-04-25T00:20:55;32.30;;;19.65;;
26690;SDS011;14307;51.718;8.938;2023-04-25T00:23:22;31.25;;;20.75;;
26690;SDS011;14307;51.718;8.938;2023-04-25T00:25:50;37.30;;;19.45;;
26690;SDS011;14307;51.718;8.938;2023-04-25T00:28:17;31.70;;;19.88;;
26690;SDS011;14307;51.718;8.938;2023-04-25T00:30:43;35.10;;;20.45;;
26690;SDS011;14307;51.718;8.938;2023-04-25T00:33:10;27.67;;;18.27;;
26690;SDS011;14307;51.718;8.938;2023-04-25T00:35:37;36.13;;;18.33;;
26690;SDS011;14307;51.718;8.938;2023-04-25T00:38:04;30.25;;;19.77;;
26690;SDS011;14307;51.718;8.938;2023-04-25T00:40:31;39.42;;;19.23;;
26690;SDS011;14307;51.718;8.938;2023-04-25T00:42:58;26.05;;;18.33;;
26690;SDS011;14307;51.718;8.938;2023-04-25T00:45:27;29.77;;;18.80;;
26690;SDS011;14307;51.718;8.938;2023-04-25T00:47:55;36.08;;;18.65;;
26690;SDS011;14307;51.718;8.938;2023-04-25T00:50:23;31.60;;;20.15;;
26690;SDS011;14307;51.718;8.938;2023-04-25T00:52:51;31.67;;;17.73;;
26690;SDS011;14307;51.718;8.938;2023-04-25T00:55:18;46.50;;;20.42;;
26690;SDS011;14307;51.718;8.938;2023-04-25T00:57:46;33.80;;;20.67;;
26690;SDS011;14307;51.718;8.938;2023-04-25T01:00:13;29.20;;;20.83;;
26690;SDS011;14307;51.718;8.938;2023-04-25T01:02:41;26.67;;;20.40;;
26690;SDS011;14307;51.718;8.938;2023-04-25T01:05:08;31.15;;;20.48;;
26690;SDS011;14307;51.718;8.938;2023-04-25T01:07:35;38.50;;;22.02;;
26690;SDS011;14307;51.718;8.938;2023-04-25T01:10:02;32.15;;;20.73;;
26690;SDS011;14307;51.718;8.938;2023-04-25T01:12:30;38.53;;;22.45;;
26690;SDS011;14307;51.718;8.938;2023-04-25T01:14:56;35.53;;;23.15;;
26690;SDS011;14307;51.718;8.938;2023-04-25T01:17:23;36.25;;;23.05;;
26690;SDS011;14307;51.718;8.938;2023-04-25T01:19:50;38.60;;;22.02;;
26690;SDS011;14307;51.718;8.938;2023-04-25T01:22:17;39.13;;;22.65;;
26690;SDS011;14307;51.718;8.938;2023-04-25T01:24:45;31.85;;;20.48;;
26690;SDS011;14307;51.718;8.938;2023-04-25T01:27:12;46.10;;;22.45;;
26690;SDS011;14307;51.718;8.938;2023-04-25T01:29:39;38.08;;;23.00;;
26690;SDS011;14307;51.718;8.938;2023-04-25T01:32:06;33.67;;;21.48;;
26690;SDS011;14307;51.718;8.938;2023-04-25T01:34:33;40.35;;;22.60;;
26690;SDS011;14307;51.718;8.938;2023-04-25T01:37:00;43.97;;;20.08;;
26690;SDS011;14307;51.718;8.938;2023-04-25T01:39:28;43.60;;;20.45;;
26690;SDS011;14307;51.718;8.938;2023-04-25T01:41:54;42.55;;;19.63;;
26690;SDS011;14307;51.718;8.938;2023-04-25T01:44:22;47.67;;;20.83;;
26690;SDS011;14307;51.718;8.938;2023-04-25T01:46:49;62.03;;;23.30;;
26690;SDS011;14307;51.718;8.938;2023-04-25T01:49:16;58.15;;;21.73;;
26690;SDS011;14307;51.718;8.938;2023-04-25T01:51:43;50.17;;;20.75;;
26690;SDS011;14307;51.718;8.938;2023-04-25T01:54:11;54.65;;;23.45;;
26690;SDS011;14307;51.718;8.938;2023-04-25T01:56:38;47.08;;;20.63;;
26690;SDS011;14307;51.718;8.938;2023-04-25T01:59:08;53.25;;;21.50;;
26690;SDS011;14307;51.718;8.938;2023-04-25T02:01:35;49.88;;;23.02;;
26690;SDS011;14307;51.718;8.938;2023-04-25T02:04:20;66.55;;;23.45;;
26690;SDS011;14307;51.718;8.938;2023-04-25T02:06:46;55.13;;;23.05;;
26690;SDS011;14307;51.718;8.938;2023-04-25T02:09:14;46.70;;;22.58;;
26690;SDS011;14307;51.718;8.938;2023-04-25T02:11:46;67.95;;;24.42;;
26690;SDS011;14307;51.718;8.938;2023-04-25T02:14:51;64.82;;;25.60;;
26690;SDS011;14307;51.718;8.938;2023-04-25T02:17:25;56.50;;;23.48;;
26690;SDS011;14307;51.718;8.938;2023-04-25T02:19:52;68.18;;;25.63;;
26690;SDS011;14307;51.718;8.938;2023-04-25T02:22:19;66.10;;;26.77;;
26690;SDS011;14307;51.718;8.938;2023-04-25T02:24:46;70.95;;;25.95;;
26690;SDS011;14307;51.718;8.938;2023-04-25T02:27:13;65.07;;;27.00;;
26690;SDS011;14307;51.718;8.938;2023-04-25T02:29:39;76.80;;;29.20;;
26690;SDS011;14307;51.718;8.938;2023-04-25T02:32:08;88.65;;;30.27;;
26690;SDS011;14307;51.718;8.938;2023-04-25T02:34:35;76.93;;;32.85;;
26690;SDS011;14307;51.718;8.938;2023-04-25T02:37:02;78.88;;;34.20;;
26690;SDS011;14307;51.718;8.938;2023-04-25T02:39:29;92.65;;;34.10;;
26690;SDS011;14307;51.718;8.938;2023-04-25T02:41:56;100.95;;;38.42;;
26690;SDS011;14307;51.718;8.938;2023-04-25T02:44:22;104.68;;;37.88;;
26690;SDS011;14307;51.718;8.938;2023-04-25T02:46:49;91.18;;;35.10;;
26690;SDS011;14307;51.718;8.938;2023-04-25T02:49:16;87.28;;;35.60;;
26690;SDS011;14307;51.718;8.938;2023-04-25T02:51:43;88.55;;;34.78;;
26690;SDS011;14307;51.718;8.938;2023-04-25T02:54:09;78.78;;;34.10;;
26690;SDS011;14307;51.718;8.938;2023-04-25T02:56:40;92.07;;;34.63;;
26690;SDS011;14307;51.718;8.938;2023-04-25T02:59:12;93.60;;;35.88;;
26690;SDS011;14307;51.718;8.938;2023-04-25T03:01:42;79.63;;;33.50;;
26690;SDS011;14307;51.718;8.938;2023-04-25T03:04:09;82.80;;;36.05;;
26690;SDS011;14307;51.718;8.938;2023-04-25T03:06:36;109.22;;;38.58;;
26690;SDS011;14307;51.718;8.938;2023-04-25T03:09:02;85.88;;;35.60;;
26690;SDS011;14307;51.718;8.938;2023-04-25T03:11:30;85.40;;;36.42;;
26690;SDS011;14307;51.718;8.938;2023-04-25T03:13:57;77.70;;;33.72;;
26690;SDS011;14307;51.718;8.938;2023-04-25T03:16:23;89.20;;;34.58;;
26690;SDS011;14307;51.718;8.938;2023-04-25T03:18:50;82.95;;;35.50;;
26690;SDS011;14307;51.718;8.938;2023-04-25T03:21:17;84.15;;;33.40;;
26690;SDS011;14307;51.718;8.938;2023-04-25T03:23:44;74.22;;;32.30;;
26690;SDS011;14307;51.718;8.938;2023-04-25T03:26:11;70.93;;;27.98;;
26690;SDS011;14307;51.718;8.938;2023-04-25T03:28:37;70.38;;;30.23;;
26690;SDS011;14307;51.718;8.938;2023-04-25T03:31:06;69.28;;;29.55;;
26690;SDS011;14307;51.718;8.938;2023-04-25T03:33:32;70.80;;;30.13;;
26690;SDS011;14307;51.718;8.938;2023-04-25T03:35:59;68.45;;;29.58;;
26690;SDS011;14307;51.718;8.938;2023-04-25T03:38:27;60.78;;;26.02;;
26690;SDS011;14307;51.718;8.938;2023-04-25T03:40:54;55.45;;;24.98;;
26690;SDS011;14307;51.718;8.938;2023-04-25T03:43:44;53.72;;;23.23;;
26690;SDS011;14307;51.718;8.938;2023-04-25T03:46:12;44.55;;;20.48;;
26690;SDS011;14307;51.718;8.938;2023-04-25T03:48:40;55.33;;;23.45;;
26690;SDS011;14307;51.718;8.938;2023-04-25T03:51:09;42.55;;;20.88;;
26690;SDS011;14307;51.718;8.938;2023-04-25T03:53:40;45.85;;;20.70;;
26690;SDS011;14307;51.718;8.938;2023-04-25T03:56:19;33.90;;;17.50;;
26690;SDS011;14307;51.718;8.938;2023-04-25T03:58:52;46.35;;;21.02;;
26690;SDS011;14307;51.718;8.938;2023-04-25T04:01:22;40.72;;;18.42;;
26690;SDS011;14307;51.718;8.938;2023-04-25T04:03:49;37.90;;;20.02;;
26690;SDS011;14307;51.718;8.938;2023-04-25T04:06:16;40.40;;;18.55;;
26690;SDS011;14307;51.718;8.938;2023-04-25T04:08:47;25.20;;;14.57;;
26690;SDS011;14307;51.718;8.938;2023-04-25T04:11:14;34.63;;;17.42;;
26690;SDS011;14307;51.718;8.938;2023-04-25T04:13:41;23.30;;;13.02;;
26690;SDS011;14307;51.718;8.938;2023-04-25T04:16:08;26.80;;;11.05;;
26690;SDS011;14307;51.718;8.938;2023-04-25T04:18:35;31.23;;;13.80;;
26690;SDS011;14307;51.718;8.938;2023-04-25T04:21:02;30.23;;;14.18;;
26690;SDS011;14307;51.718;8.938;2023-04-25T04:23:31;39.08;;;14.70;;
26690;SDS011;14307;51.718;8.938;2023-04-25T04:25:58;32.75;;;14.80;;
26690;SDS011;14307;51.718;8.938;2023-04-25T04:28:44;30.58;;;13.15;;
26690;SDS011;14307;51.718;8.938;2023-04-25T04:31:17;40.17;;;18.33;;
26690;SDS011;14307;51.718;8.938;2023-04-25T04:33:46;27.40;;;13.52;;
26690;SDS011;14307;51.718;8.938;2023-04-25T04:36:14;30.10;;;12.75;;
26690;SDS011;14307;51.718;8.938;2023-04-25T04:38:42;27.98;;;11.45;;
26690;SDS011;14307;51.718;8.938;2023-04-25T04:44:02;27.63;;;11.83;;
26690;SDS011;14307;51.718;8.938;2023-04-25T04:46:44;28.83;;;13.40;;
26690;SDS011;14307;51.718;8.938;2023-04-25T04:49:39;29.48;;;12.27;;
26690;SDS011;14307;51.718;8.938;2023-04-25T04:52:24;29.58;;;13.10;;
26690;SDS011;14307;51.718;8.938;2023-04-25T04:54:58;36.37;;;14.37;;
26690;SDS011;14307;51.718;8.938;2023-04-25T04:57:40;34.50;;;13.95;;
26690;SDS011;14307;51.718;8.938;2023-04-25T05:00:20;36.85;;;15.32;;
26690;SDS011;14307;51.718;8.938;2023-04-25T05:03:13;44.47;;;15.93;;
26690;SDS011;14307;51.718;8.938;2023-04-25T05:06:02;56.75;;;15.10;;
26690;SDS011;14307;51.718;8.938;2023-04-25T05:08:36;49.58;;;15.88;;
26690;SDS011;14307;51.718;8.938;2023-04-25T05:11:35;32.58;;;14.82;;
26690;SDS011;14307;51.718;8.938;2023-04-25T05:14:17;41.38;;;14.52;;
26690;SDS011;14307;51.718;8.938;2023-04-25T05:17:03;47.08;;;14.70;;
26690;SDS011;14307;51.718;8.938;2023-04-25T05:19:44;36.45;;;14.43;;
26690;SDS011;14307;51.718;8.938;2023-04-25T05:22:22;37.70;;;13.95;;
26690;SDS011;14307;51.718;8.938;2023-04-25T05:24:57;35.97;;;16.13;;
26690;SDS011;14307;51.718;8.938;2023-04-25T05:27:43;36.83;;;16.60;;
26690;SDS011;14307;51.718;8.938;2023-04-25T05:30:21;52.58;;;17.63;;
26690;SDS011;14307;51.718;8.938;2023-04-25T05:33:04;47.63;;;16.58;;
26690;SDS011;14307;51.718;8.938;2023-04-25T05:35:31;49.42;;;18.20;;
26690;SDS011;14307;51.718;8.938;2023-04-25T05:37:59;35.30;;;15.80;;
26690;SDS011;14307;51.718;8.938;2023-04-25T05:41:01;45.28;;;17.45;;
26690;SDS011;14307;51.718;8.938;2023-04-25T05:43:38;45.10;;;16.98;;
26690;SDS011;14307;51.718;8.938;2023-04-25T05:46:19;39.38;;;15.50;;
26690;SDS011;14307;51.718;8.938;2023-04-25T05:49:08;49.22;;;16.50;;
26690;SDS011;14307;51.718;8.938;2023-04-25T05:51:55;38.08;;;15.80;;
26690;SDS011;14307;51.718;8.938;2023-04-25T05:54:37;46.47;;;17.02;;
26690;SDS011;14307;51.718;8.938;2023-04-25T05:57:04;34.58;;;14.60;;
26690;SDS011;14307;51.718;8.938;2023-04-25T05:59:31;45.55;;;16.65;;
26690;SDS011;14307;51.718;8.938;2023-04-25T06:01:58;43.25;;;16.92;;
26690;SDS011;14307;51.718;8.938;2023-04-25T06:04:25;47.10;;;16.65;;
26690;SDS011;14307;51.718;8.938;2023-04-25T06:06:53;45.03;;;15.90;;
26690;SDS011;14307;51.718;8.938;2023-04-25T06:09:21;41.95;;;16.35;;
26690;SDS011;14307;51.718;8.938;2023-04-25T06:11:48;59.40;;;17.58;;
26690;SDS011;14307;51.718;8.938;2023-04-25T06:14:14;44.15;;;16.55;;
26690;SDS011;14307;51.718;8.938;2023-04-25T06:16:46;47.85;;;17.58;;
26690;SDS011;14307;51.718;8.938;2023-04-25T06:19:13;51.55;;;18.23;;
26690;SDS011;14307;51.718;8.938;2023-04-25T06:21:39;35.92;;;17.70;;
26690;SDS011;14307;51.718;8.938;2023-04-25T06:24:07;50.03;;;17.65;;
26690;SDS011;14307;51.718;8.938;2023-04-25T06:26:34;51.05;;;17.73;;
26690;SDS011;14307;51.718;8.938;2023-04-25T06:29:02;50.03;;;16.60;;
26690;SDS011;14307;51.718;8.938;2023-04-25T06:31:29;45.10;;;17.77;;
26690;SDS011;14307;51.718;8.938;2023-04-25T06:33:59;47.83;;;17.40;;
26690;SDS011;14307;51.718;8.938;2023-04-25T06:36:27;76.60;;;18.50;;
26690;SDS011;14307;51.718;8.938;2023-04-25T06:39:00;42.10;;;16.50;;
26690;SDS011;14307;51.718;8.938;2023-04-25T06:41:27;37.45;;;14.05;;
26690;SDS011;14307;51.718;8.938;2023-04-25T06:43:58;42.38;;;16.20;;
26690;SDS011;14307;51.718;8.938;2023-04-25T06:46:48;45.80;;;14.63;;
26690;SDS011;14307;51.718;8.938;2023-04-25T06:49:14;39.88;;;15.07;;
26690;SDS011;14307;51.718;8.938;2023-04-25T06:51:42;47.17;;;14.45;;
26690;SDS011;14307;51.718;8.938;2023-04-25T06:54:08;34.35;;;14.68;;
26690;SDS011;14307;51.718;8.938;2023-04-25T06:56:43;43.60;;;15.65;;
26690;SDS011;14307;51.718;8.938;2023-04-25T06:59:12;41.10;;;14.48;;
26690;SDS011;14307;51.718;8.938;2023-04-25T07:01:40;41.60;;;13.68;;
26690;SDS011;14307;51.718;8.938;2023-04-25T07:04:19;31.13;;;12.55;;
26690;SDS011;14307;51.718;8.938;2023-04-25T07:06:53;28.90;;;13.38;;
26690;SDS011;14307;51.718;8.938;2023-04-25T07:09:27;30.23;;;14.70;;
26690;SDS011;14307;51.718;8.938;2023-04-25T07:11:54;32.65;;;16.42;;
26690;SDS011;14307;51.718;8.938;2023-04-25T07:14:21;38.95;;;17.02;;
26690;SDS011;14307;51.718;8.938;2023-04-25T07:16:48;32.25;;;14.52;;
26690;SDS011;14307;51.718;8.938;2023-04-25T07:19:16;47.03;;;19.40;;
26690;SDS011;14307;51.718;8.938;2023-04-25T07:21:42;35.28;;;14.82;;
26690;SDS011;14307;51.718;8.938;2023-04-25T07:24:10;26.17;;;16.42;;
26690;SDS011;14307;51.718;8.938;2023-04-25T07:26:42;34.30;;;18.35;;
26690;SDS011;14307;51.718;8.938;2023-04-25T07:29:16;32.72;;;17.38;;
26690;SDS011;14307;51.718;8.938;2023-04-25T07:31:43;37.58;;;21.63;;
26690;SDS011;14307;51.718;8.938;2023-04-25T07:34:10;25.98;;;18.83;;
26690;SDS011;14307;51.718;8.938;2023-04-25T07:36:37;26.52;;;17.50;;
26690;SDS011;14307;51.718;8.938;2023-04-25T07:39:04;36.03;;;16.42;;
26690;SDS011;14307;51.718;8.938;2023-04-25T07:41:31;36.67;;;18.70;;
26690;SDS011;14307;51.718;8.938;2023-04-25T07:43:58;34.70;;;16.55;;
26690;SDS011;14307;51.718;8.938;2023-04-25T07:46:25;24.83;;;17.15;;
26690;SDS011;14307;51.718;8.938;2023-04-25T07:48:54;31.13;;;17.90;;
26690;SDS011;14307;51.718;8.938;2023-04-25T07:51:21;32.08;;;20.02;;
26690;SDS011;14307;51.718;8.938;2023-04-25T07:53:51;34.35;;;25.00;;
26690;SDS011;14307;51.718;8.938;2023-04-25T07:56:20;31.63;;;24.20;;
26690;SDS011;14307;51.718;8.938;2023-04-25T07:58:48;24.95;;;21.13;;
26690;SDS011;14307;51.718;8.938;2023-04-25T08:01:17;35.50;;;23.23;;
26690;SDS011;14307;51.718;8.938;2023-04-25T08:03:50;35.85;;;22.92;;
26690;SDS011;14307;51.718;8.938;2023-04-25T08:06:22;32.38;;;23.58;;
26690;SDS011;14307;51.718;8.938;2023-04-25T08:08:58;35.00;;;23.00;;
26690;SDS011;14307;51.718;8.938;2023-04-25T08:11:34;32.80;;;23.42;;
26690;SDS011;14307;51.718;8.938;2023-04-25T08:14:01;29.60;;;21.80;;
26690;SDS011;14307;51.718;8.938;2023-04-25T08:16:28;29.23;;;20.25;;
26690;SDS011;14307;51.718;8.938;2023-04-25T08:18:59;35.75;;;21.58;;
26690;SDS011;14307;51.718;8.938;2023-04-25T08:21:26;31.73;;;20.90;;
26690;SDS011;14307;51.718;8.938;2023-04-25T08:23:55;30.58;;;20.35;;
26690;SDS011;14307;51.718;8.938;2023-04-25T08:26:28;28.60;;;22.85;;
26690;SDS011;14307;51.718;8.938;2023-04-25T08:28:55;28.48;;;22.63;;
26690;SDS011;14307;51.718;8.938;2023-04-25T08:31:22;30.45;;;25.55;;
26690;SDS011;14307;51.718;8.938;2023-04-25T08:33:59;28.58;;;23.70;;
26690;SDS011;14307;51.718;8.938;2023-04-25T08:36:33;30.75;;;27.75;;
26690;SDS011;14307;51.718;8.938;2023-04-25T08:39:16;29.42;;;26.52;;
26690;SDS011;14307;51.718;8.938;2023-04-25T08:41:57;31.50;;;28.45;;
26690;SDS011;14307;51.718;8.938;2023-04-25T08:44:24;29.63;;;27.02;;
26690;SDS011;14307;51.718;8.938;2023-04-25T08:46:51;29.80;;;24.52;;
26690;SDS011;14307;51.718;8.938;2023-04-25T08:49:26;29.35;;;25.65;;
26690;SDS011;14307;51.718;8.938;2023-04-25T08:51:53;30.30;;;26.77;;
26690;SDS011;14307;51.718;8.938;2023-04-25T08:54:24;28.83;;;25.60;;
26690;SDS011;14307;51.718;8.938;2023-04-25T08:57:01;33.10;;;25.50;;
26690;SDS011;14307;51.718;8.938;2023-04-25T08:59:30;29.02;;;25.63;;
26690;SDS011;14307;51.718;8.938;2023-04-25T09:01:59;30.15;;;27.35;;
26690;SDS011;14307;51.718;8.938;2023-04-25T09:04:26;33.70;;;25.77;;
26690;SDS011;14307;51.718;8.938;2023-04-25T09:06:54;30.30;;;25.23;;
26690;SDS011;14307;51.718;8.938;2023-04-25T09:09:21;29.23;;;24.77;;
26690;SDS011;14307;51.718;8.938;2023-04-25T09:11:48;28.63;;;25.63;;
26690;SDS011;14307;51.718;8.938;2023-04-25T09:14:15;28.42;;;25.60;;
26690;SDS011;14307;51.718;8.938;2023-04-25T09:17:00;34.25;;;28.08;;
26690;SDS011;14307;51.718;8.938;2023-04-25T09:19:54;28.95;;;26.40;;
26690;SDS011;14307;51.718;8.938;2023-04-25T09:22:25;29.90;;;27.33;;
26690;SDS011;14307;51.718;8.938;2023-04-25T09:24:52;31.00;;;27.25;;
26690;SDS011;14307;51.718;8.938;2023-04-25T09:27:23;28.13;;;24.88;;
26690;SDS011;14307;51.718;8.938;2023-04-25T09:29:58;28.42;;;25.70;;
26690;SDS011;14307;51.718;8.938;2023-04-25T09:32:31;33.72;;;25.50;;
26690;SDS011;14307;51.718;8.938;2023-04-25T09:34:59;30.15;;;27.40;;
26690;SDS011;14307;51.718;8.938;2023-04-25T09:37:28;32.38;;;26.38;;
26690;SDS011;14307;51.718;8.938;2023-04-25T09:40:14;30.23;;;26.98;;
26690;SDS011;14307;51.718;8.938;2023-04-25T09:42:53;32.88;;;29.98;;
26690;SDS011;14307;51.718;8.938;2023-04-25T09:45:20;33.65;;;30.80;;
26690;SDS011;14307;51.718;8.938;2023-04-25T09:47:47;34.38;;;31.45;;
26690;SDS011;14307;51.718;8.938;2023-04-25T09:50:19;31.20;;;28.63;;
26690;SDS011;14307;51.718;8.938;2023-04-25T09:53:04;31.30;;;28.42;;
26690;SDS011;14307;51.718;8.938;2023-04-25T09:55:59;35.83;;;31.98;;
26690;SDS011;14307;51.718;8.938;2023-04-25T09:58:27;33.15;;;30.42;;
26690;SDS011;14307;51.718;8.938;2023-04-25T10:01:02;34.30;;;30.98;;
26690;SDS011;14307;51.718;8.938;2023-04-25T10:03:40;35.60;;;32.40;;
26690;SDS011;14307;51.718;8.938;2023-04-25T10:06:21;31.77;;;28.98;;
26690;SDS011;14307;51.718;8.938;2023-04-25T10:08:50;34.70;;;31.35;;
26690;SDS011;14307;51.718;8.938;2023-04-25T10:11:19;33.75;;;30.90;;
26690;SDS011;14307;51.718;8.938;2023-04-25T10:13:49;31.83;;;28.88;;
26690;SDS011;14307;51.718;8.938;2023-04-25T10:16:17;32.05;;;29.63;;
26690;SDS011;14307;51.718;8.938;2023-04-25T10:18:44;30.35;;;27.92;;
26690;SDS011;14307;51.718;8.938;2023-04-25T10:21:11;27.85;;;25.42;;
26690;SDS011;14307;51.718;8.938;2023-04-25T10:23:40;30.42;;;28.15;;
26690;SDS011;14307;51.718;8.938;2023-04-25T10:26:07;28.83;;;26.52;;
26690;SDS011;14307;51.718;8.938;2023-04-25T10:28:58;29.98;;;27.30;;
26690;SDS011;14307;51.718;8.938;2023-04-25T10:31:27;30.38;;;27.80;;
26690;SDS011;14307;51.718;8.938;2023-04-25T10:33:55;29.90;;;27.02;;
26690;SDS011;14307;51.718;8.938;2023-04-25T10:36:23;28.88;;;26.25;;
26690;SDS011;14307;51.718;8.938;2023-04-25T10:38:50;30.33;;;28.23;;
26690;SDS011;14307;51.718;8.938;2023-04-25T10:41:18;30.48;;;27.95;;
26690;SDS011;14307;51.718;8.938;2023-04-25T10:43:47;32.60;;;29.98;;
26690;SDS011;14307;51.718;8.938;2023-04-25T10:46:23;32.17;;;29.73;;
26690;SDS011;14307;51.718;8.938;2023-04-25T10:48:53;30.98;;;28.52;;
26690;SDS011;14307;51.718;8.938;2023-04-25T10:51:25;30.13;;;27.95;;
26690;SDS011;14307;51.718;8.938;2023-04-25T10:54:01;31.50;;;28.95;;
26690;SDS011;14307;51.718;8.938;2023-04-25T10:56:30;31.77;;;28.75;;
26690;SDS011;14307;51.718;8.938;2023-04-25T11:04:23;30.77;;;28.10;;
26690;SDS011;14307;51.718;8.938;2023-04-25T11:09:46;29.88;;;27.48;;
26690;SDS011;14307;51.718;8.938;2023-04-25T11:12:13;29.02;;;26.63;;
26690;SDS011;14307;51.718;8.938;2023-04-25T11:14:40;28.27;;;25.58;;
26690;SDS011;14307;51.718;8.938;2023-04-25T11:17:07;30.48;;;27.40;;
26690;SDS011;14307;51.718;8.938;2023-04-25T11:19:34;30.63;;;27.95;;
26690;SDS011;14307;51.718;8.938;2023-04-25T11:22:01;32.67;;;29.80;;
26690;SDS011;14307;51.718;8.938;2023-04-25T11:24:29;31.30;;;29.00;;
26690;SDS011;14307;51.718;8.938;2023-04-25T11:27:01;31.25;;;28.80;;
26690;SDS011;14307;51.718;8.938;2023-04-25T11:29:30;31.70;;;29.23;;
26690;SDS011;14307;51.718;8.938;2023-04-25T11:31:58;30.90;;;28.35;;
26690;SDS011;14307;51.718;8.938;2023-04-25T11:34:27;31.40;;;28.88;;
26690;SDS011;14307;51.718;8.938;2023-04-25T11:36:57;33.33;;;30.90;;
26690;SDS011;14307;51.718;8.938;2023-04-25T11:39:24;32.88;;;29.83;;
26690;SDS011;14307;51.718;8.938;2023-04-25T11:41:52;31.38;;;28.75;;
26690;SDS011;14307;51.718;8.938;2023-04-25T11:44:20;30.67;;;28.33;;
26690;SDS011;14307;51.718;8.938;2023-04-25T11:46:47;33.33;;;30.98;;
26690;SDS011;14307;51.718;8.938;2023-04-25T11:49:14;32.08;;;29.52;;
26690;SDS011;14307;51.718;8.938;2023-04-25T11:51:44;31.52;;;28.83;;
26690;SDS011;14307;51.718;8.938;2023-04-25T11:54:12;32.72;;;29.92;;
26690;SDS011;14307;51.718;8.938;2023-04-25T11:56:43;30.30;;;27.65;;
26690;SDS011;14307;51.718;8.938;2023-04-25T11:59:11;30.85;;;28.02;;
26690;SDS011;14307;51.718;8.938;2023-04-25T12:01:40;36.30;;;33.10;;
26690;SDS011;14307;51.718;8.938;2023-04-25T12:06:45;33.97;;;31.05;;
26690;SDS011;14307;51.718;8.938;2023-04-25T12:09:14;33.25;;;30.67;;
26690;SDS011;14307;51.718;8.938;2023-04-25T12:11:45;34.28;;;31.88;;
26690;SDS011;14307;51.718;8.938;2023-04-25T12:14:26;35.88;;;33.38;;
26690;SDS011;14307;51.718;8.938;2023-04-25T12:16:55;32.05;;;29.70;;
26690;SDS011;14307;51.718;8.938;2023-04-25T12:19:24;32.95;;;30.48;;
26690;SDS011;14307;51.718;8.938;2023-04-25T12:21:52;32.50;;;30.30;;
26690;SDS011;14307;51.718;8.938;2023-04-25T12:24:25;31.92;;;29.27;;
26690;SDS011;14307;51.718;8.938;2023-04-25T12:27:01;30.60;;;27.98;;
26690;SDS011;14307;51.718;8.938;2023-04-25T12:29:30;32.00;;;29.17;;
26690;SDS011;14307;51.718;8.938;2023-04-25T12:32:13;33.38;;;30.77;;
26690;SDS011;14307;51.718;8.938;2023-04-25T12:34:40;33.47;;;31.13;;
26690;SDS011;14307;51.718;8.938;2023-04-25T12:37:06;30.98;;;28.50;;
26690;SDS011;14307;51.718;8.938;2023-04-25T12:39:33;31.67;;;29.05;;
26690;SDS011;14307;51.718;8.938;2023-04-25T12:42:00;32.83;;;30.63;;
26690;SDS011;14307;51.718;8.938;2023-04-25T12:44:27;32.17;;;29.95;;
26690;SDS011;14307;51.718;8.938;2023-04-25T12:46:53;30.88;;;28.45;;
26690;SDS011;14307;51.718;8.938;2023-04-25T12:49:21;31.60;;;29.42;;
26690;SDS011;14307;51.718;8.938;2023-04-25T12:51:48;30.67;;;28.65;;
26690;SDS011;14307;51.718;8.938;2023-04-25T12:54:15;28.67;;;26.58;;
26690;SDS011;14307;51.718;8.938;2023-04-25T12:56:42;29.85;;;27.35;;
26690;SDS011;14307;51.718;8.938;2023-04-25T12:59:08;32.78;;;30.17;;
26690;SDS011;14307;51.718;8.938;2023-04-25T13:01:35;33.03;;;30.45;;
26690;SDS011;14307;51.718;8.938;2023-04-25T13:04:02;32.00;;;29.50;;
26690;SDS011;14307;51.718;8.938;2023-04-25T13:06:30;32.85;;;30.40;;
26690;SDS011;14307;51.718;8.938;2023-04-25T13:08:57;34.35;;;31.90;;
26690;SDS011;14307;51.718;8.938;2023-04-25T13:11:24;34.25;;;31.83;;
26690;SDS011;14307;51.718;8.938;2023-04-25T13:13:50;33.72;;;31.52;;
26690;SDS011;14307;51.718;8.938;2023-04-25T13:16:18;32.60;;;30.17;;
26690;SDS011;14307;51.718;8.938;2023-04-25T13:18:47;33.60;;;31.17;;
26690;SDS011;14307;51.718;8.938;2023-04-25T13:21:14;33.53;;;31.25;;
26690;SDS011;14307;51.718;8.938;2023-04-25T13:23:40;34.40;;;31.80;;
26690;SDS011;14307;51.718;8.938;2023-04-25T13:26:12;33.10;;;30.85;;
26690;SDS011;14307;51.718;8.938;2023-04-25T13:28:39;33.70;;;30.92;;
26690;SDS011;14307;51.718;8.938;2023-04-25T13:31:10;33.83;;;31.42;;
26690;SDS011;14307;51.718;8.938;2023-04-25T13:33:37;33.38;;;30.88;;
26690;SDS011;14307;51.718;8.938;2023-04-25T13:36:03;37.30;;;34.00;;
26690;SDS011;14307;51.718;8.938;2023-04-25T13:38:31;34.58;;;32.22;;
26690;SDS011;14307;51.718;8.938;2023-04-25T13:40:58;34.53;;;31.85;;
26690;SDS011;14307;51.718;8.938;2023-04-25T13:43:25;30.98;;;28.70;;
26690;SDS011;14307;51.718;8.938;2023-04-25T13:45:51;33.15;;;30.75;;
26690;SDS011;14307;51.718;8.938;2023-04-25T13:48:18;35.05;;;32.33;;
26690;SDS011;14307;51.718;8.938;2023-04-25T13:50:46;35.53;;;32.58;;
26690;SDS011;14307;51.718;8.938;2023-04-25T13:53:12;33.95;;;31.23;;
26690;SDS011;14307;51.718;8.938;2023-04-25T13:55:39;33.50;;;31.10;;
26690;SDS011;14307;51.718;8.938;2023-04-25T13:58:06;33.25;;;30.92;;
26690;SDS011;14307;51.718;8.938;2023-04-25T14:00:36;33.03;;;30.65;;
26690;SDS011;14307;51.718;8.938;2023-04-25T14:03:09;34.47;;;31.60;;
26690;SDS011;14307;51.718;8.938;2023-04-25T14:05:36;34.00;;;31.77;;
26690;SDS011;14307;51.718;8.938;2023-04-25T14:08:09;32.83;;;30.55;;
26690;SDS011;14307;51.718;8.938;2023-04-25T14:10:36;32.30;;;30.10;;
26690;SDS011;14307;51.718;8.938;2023-04-25T14:13:03;35.17;;;32.97;;
26690;SDS011;14307;51.718;8.938;2023-04-25T14:15:31;36.33;;;33.72;;
26690;SDS011;14307;51.718;8.938;2023-04-25T14:17:59;33.25;;;30.25;;
26690;SDS011;14307;51.718;8.938;2023-04-25T14:20:26;35.88;;;33.60;;
26690;SDS011;14307;51.718;8.938;2023-04-25T14:22:53;36.33;;;34.10;;
26690;SDS011;14307;51.718;8.938;2023-04-25T14:25:22;32.97;;;30.65;;
26690;SDS011;14307;51.718;8.938;2023-04-25T14:27:49;32.17;;;30.17;;
26690;SDS011;14307;51.718;8.938;2023-04-25T14:30:17;33.50;;;31.23;;
26690;SDS011;14307;51.718;8.938;2023-04-25T14:32:45;34.72;;;32.05;;
26690;SDS011;14307;51.718;8.938;2023-04-25T14:35:12;37.65;;;35.25;;
26690;SDS011;14307;51.718;8.938;2023-04-25T14:37:39;34.85;;;32.75;;
26690;SDS011;14307;51.718;8.938;2023-04-25T14:40:06;30.13;;;28.13;;
26690;SDS011;14307;51.718;8.938;2023-04-25T14:42:36;35.60;;;32.92;;
26690;SDS011;14307;51.718;8.938;2023-04-25T14:45:04;36.63;;;34.30;;
26690;SDS011;14307;51.718;8.938;2023-04-25T14:47:32;38.30;;;35.65;;
26690;SDS011;14307;51.718;8.938;2023-04-25T14:49:59;34.75;;;32.65;;
26690;SDS011;14307;51.718;8.938;2023-04-25T14:52:28;35.67;;;33.13;;